createdAt,value
2023-01-09T00:00:42.842Z,18.37
2023-01-09T00:01:50.764Z,18.39
2023-01-09T00:02:52.745Z,18.40
2023-01-09T00:03:54.692Z,18.39
2023-01-09T00:04:56.497Z,18.31
2023-01-09T00:05:58.275Z,18.37
2023-01-09T00:07:00.140Z,18.36
2023-01-09T00:08:02.031Z,18.34
2023-01-09T00:09:03.965Z,18.36
2023-01-09T00:10:06.820Z,18.36
2023-01-09T00:11:08.851Z,18.33
2023-01-09T00:12:10.633Z,18.35
2023-01-09T00:13:13.783Z,18.36
2023-01-09T00:14:16.900Z,18.34
2023-01-09T00:15:18.805Z,18.10
2023-01-09T00:16:21.089Z,18.35
2023-01-09T00:17:22.928Z,18.30
2023-01-09T00:18:24.840Z,18.33
2023-01-09T00:19:26.617Z,18.30
2023-01-09T00:20:28.431Z,18.32
2023-01-09T00:21:30.221Z,18.30
2023-01-09T00:22:32.185Z,18.29
2023-01-09T00:23:34.459Z,18.28
2023-01-09T00:24:37.257Z,18.19
2023-01-09T00:25:40.512Z,18.30
2023-01-09T00:26:44.148Z,18.29
2023-01-09T00:27:47.256Z,18.30
2023-01-09T00:28:51.172Z,18.30
2023-01-09T00:29:52.989Z,18.29
2023-01-09T00:30:59.666Z,18.29
2023-01-09T00:32:01.517Z,18.26
2023-01-09T00:33:03.428Z,18.27
2023-01-09T00:34:07.588Z,18.26
2023-01-09T00:35:14.599Z,18.25
2023-01-09T00:36:16.361Z,18.27
2023-01-09T00:37:18.246Z,18.20
2023-01-09T00:38:20.044Z,18.22
2023-01-09T00:39:25.015Z,18.24
2023-01-09T00:40:26.938Z,18.25
2023-01-09T00:41:43.226Z,18.21
2023-01-09T00:42:49.801Z,18.27
2023-01-09T00:43:55.235Z,18.24
2023-01-09T00:45:03.989Z,18.27
2023-01-09T00:46:07.068Z,18.27
2023-01-09T00:47:14.630Z,18.25
2023-01-09T00:48:25.077Z,18.25
2023-01-09T00:49:30.891Z,18.24
2023-01-09T00:50:35.169Z,18.25
2023-01-09T00:51:38.080Z,18.22
2023-01-09T00:52:40.860Z,18.22
2023-01-09T00:53:43.524Z,18.22
2023-01-09T00:54:46.431Z,18.19
2023-01-09T00:55:48.200Z,18.21
2023-01-09T00:56:50.101Z,18.17
2023-01-09T00:57:52.031Z,18.18
2023-01-09T00:58:54.561Z,18.19
2023-01-09T00:59:57.600Z,18.18
2023-01-09T01:01:00.035Z,18.18
2023-01-09T01:02:02.071Z,18.10
2023-01-09T01:03:04.278Z,18.14
2023-01-09T01:04:26.048Z,18.16
2023-01-09T01:05:46.212Z,18.21
2023-01-09T01:07:06.332Z,18.24
2023-01-09T01:08:16.252Z,18.22
2023-01-09T01:09:18.055Z,18.15
2023-01-09T01:10:22.849Z,18.18
2023-01-09T01:11:24.665Z,18.17
2023-01-09T01:12:26.452Z,18.08
2023-01-09T01:13:28.340Z,18.14
2023-01-09T01:14:30.208Z,18.08
2023-01-09T01:15:32.049Z,18.11
2023-01-09T01:16:33.877Z,18.12
2023-01-09T01:17:37.389Z,18.09
2023-01-09T01:18:40.815Z,18.11
2023-01-09T01:19:42.683Z,18.11
2023-01-09T01:20:45.548Z,18.10
2023-01-09T01:21:47.492Z,18.09
2023-01-09T01:22:49.370Z,18.04
2023-01-09T01:23:51.211Z,18.09
2023-01-09T01:24:52.995Z,18.03
2023-01-09T01:25:54.791Z,18.08
2023-01-09T01:26:56.592Z,18.06
2023-01-09T01:27:58.428Z,18.08
2023-01-09T01:29:00.263Z,18.06
2023-01-09T01:30:02.058Z,18.08
2023-01-09T01:31:04.797Z,18.07
2023-01-09T01:32:06.680Z,18.05
2023-01-09T01:33:09.591Z,18.06
2023-01-09T01:34:11.489Z,18.08
2023-01-09T01:35:13.740Z,18.06
2023-01-09T01:36:17.595Z,18.07
2023-01-09T01:37:19.512Z,17.92
2023-01-09T01:38:21.308Z,18.04
2023-01-09T01:39:23.195Z,18.06
2023-01-09T01:40:25.003Z,18.00
2023-01-09T01:41:29.898Z,18.02
2023-01-09T01:42:32.457Z,18.02
2023-01-09T01:44:28.297Z,18.15
2023-01-09T01:45:30.547Z,18.17
2023-01-09T01:46:33.697Z,18.10
2023-01-09T01:47:38.769Z,18.08
2023-01-09T01:48:40.582Z,18.08
2023-01-09T01:49:42.448Z,18.06
2023-01-09T01:51:06.631Z,18.04
2023-01-09T01:52:08.686Z,18.08
2023-01-09T01:53:10.474Z,18.07
2023-01-09T01:54:22.047Z,18.04
2023-01-09T01:55:24.569Z,17.99
2023-01-09T01:56:37.096Z,18.02
2023-01-09T01:57:42.665Z,18.03
2023-01-09T01:58:57.896Z,18.04
2023-01-09T02:00:03.177Z,18.02
2023-01-09T02:01:06.895Z,18.03
2023-01-09T02:02:10.218Z,18.02
2023-01-09T02:03:18.630Z,18.01
2023-01-09T02:04:20.935Z,17.97
2023-01-09T02:05:23.285Z,18.00
2023-01-09T02:06:26.070Z,17.94
2023-01-09T02:07:28.156Z,17.99
2023-01-09T02:08:30.137Z,17.97
2023-01-09T02:09:32.030Z,17.95
2023-01-09T02:10:34.773Z,17.94
2023-01-09T02:11:37.861Z,17.89
2023-01-09T02:12:39.676Z,17.90
2023-01-09T02:13:42.239Z,17.95
2023-01-09T02:14:44.824Z,17.93
2023-01-09T02:16:06.332Z,17.95
2023-01-09T02:17:45.212Z,18.06
2023-01-09T02:18:54.129Z,18.04
2023-01-09T02:20:28.065Z,18.03
2023-01-09T02:21:48.870Z,18.03
2023-01-09T02:23:32.631Z,18.10
2023-01-09T02:24:40.968Z,18.07
2023-01-09T02:26:10.545Z,18.06
2023-01-09T02:27:34.759Z,18.05
2023-01-09T02:29:03.924Z,18.05
2023-01-09T02:30:26.576Z,18.05
2023-01-09T02:31:47.355Z,18.07
2023-01-09T02:33:39.926Z,18.05
2023-01-09T02:34:56.323Z,18.06
2023-01-09T02:36:24.807Z,18.05
2023-01-09T02:37:44.959Z,18.07
2023-01-09T02:38:49.843Z,18.02
2023-01-09T02:40:09.384Z,17.96
2023-01-09T02:41:26.008Z,17.97
2023-01-09T02:42:27.991Z,17.99
2023-01-09T02:43:31.925Z,17.87
2023-01-09T02:44:36.159Z,17.87
2023-01-09T02:45:38.031Z,17.85
2023-01-09T02:46:39.890Z,17.89
2023-01-09T02:47:46.428Z,17.87
2023-01-09T02:48:52.741Z,17.87
2023-01-09T02:50:00.200Z,17.89
2023-01-09T02:51:29.351Z,17.94
2023-01-09T02:52:45.322Z,17.97
2023-01-09T02:54:27.529Z,17.99
2023-01-09T02:55:54.117Z,18.01
2023-01-09T02:57:36.543Z,18.01
2023-01-09T02:59:00.168Z,18.06
2023-01-09T03:00:19.001Z,18.01
2023-01-09T03:01:29.640Z,17.97
2023-01-09T03:03:09.896Z,17.99
2023-01-09T03:04:41.524Z,18.03
2023-01-09T03:05:54.943Z,18.00
2023-01-09T03:07:07.570Z,17.95
2023-01-09T03:08:14.953Z,17.93
2023-01-09T03:09:27.703Z,17.93
2023-01-09T03:10:41.341Z,17.93
2023-01-09T03:11:50.155Z,17.91
2023-01-09T03:12:54.601Z,17.90
2023-01-09T03:14:03.589Z,17.83
2023-01-09T03:15:08.918Z,17.91
2023-01-09T03:16:15.850Z,17.85
2023-01-09T03:17:26.013Z,17.88
2023-01-09T03:18:29.964Z,17.90
2023-01-09T03:19:34.339Z,17.86
2023-01-09T03:20:38.090Z,17.85
2023-01-09T03:21:40.990Z,17.85
2023-01-09T03:23:04.456Z,17.89
2023-01-09T03:24:06.415Z,17.91
2023-01-09T03:25:08.575Z,17.83
2023-01-09T03:26:11.730Z,17.86
2023-01-09T03:27:14.283Z,17.87
2023-01-09T03:28:26.741Z,17.80
2023-01-09T03:29:29.614Z,17.86
2023-01-09T03:30:33.475Z,17.83
2023-01-09T03:31:35.361Z,17.88
2023-01-09T03:32:37.197Z,17.84
2023-01-09T03:33:39.152Z,17.85
2023-01-09T03:34:40.994Z,17.84
2023-01-09T03:35:42.769Z,17.85
2023-01-09T03:36:44.974Z,17.80
2023-01-09T03:37:46.836Z,17.85
2023-01-09T03:38:49.187Z,17.82
2023-01-09T03:39:51.001Z,17.77
2023-01-09T03:40:52.836Z,17.80
2023-01-09T03:41:54.638Z,17.85
2023-01-09T03:42:56.447Z,17.78
2023-01-09T03:43:58.222Z,17.83
2023-01-09T03:45:00.087Z,17.83
2023-01-09T03:46:02.351Z,17.84
2023-01-09T03:47:04.211Z,17.85
2023-01-09T03:48:06.335Z,17.85
2023-01-09T03:49:08.111Z,17.79
2023-01-09T03:50:10.561Z,17.81
2023-01-09T03:51:12.349Z,17.83
2023-01-09T03:52:14.153Z,17.80
2023-01-09T03:53:15.999Z,17.84
2023-01-09T03:54:17.825Z,17.78
2023-01-09T03:55:19.715Z,17.84
2023-01-09T03:56:21.656Z,17.84
2023-01-09T03:57:24.318Z,17.84
2023-01-09T03:58:26.687Z,17.82
2023-01-09T03:59:28.437Z,17.83
2023-01-09T04:00:30.214Z,17.79
2023-01-09T04:01:32.119Z,17.84
2023-01-09T04:02:34.045Z,17.79
2023-01-09T04:03:36.262Z,17.85
2023-01-09T04:04:38.152Z,17.82
2023-01-09T04:05:39.905Z,17.81
2023-01-09T04:06:41.670Z,17.77
2023-01-09T04:07:43.526Z,17.82
2023-01-09T04:08:46.442Z,17.83
2023-01-09T04:09:48.287Z,17.85
2023-01-09T04:10:52.328Z,17.80
2023-01-09T04:11:54.185Z,17.83
2023-01-09T04:12:56.298Z,17.79
2023-01-09T04:13:58.107Z,17.85
2023-01-09T04:14:59.855Z,17.87
2023-01-09T04:16:01.716Z,17.85
2023-01-09T04:17:03.531Z,17.86
2023-01-09T04:18:05.525Z,17.87
2023-01-09T04:19:07.396Z,17.86
2023-01-09T04:20:10.015Z,17.85
2023-01-09T04:21:11.852Z,17.83
2023-01-09T04:22:13.699Z,17.85
2023-01-09T04:23:15.678Z,17.87
2023-01-09T04:24:17.594Z,17.86
2023-01-09T04:25:19.439Z,17.84
2023-01-09T04:26:21.324Z,17.88
2023-01-09T04:27:23.603Z,17.87
2023-01-09T04:28:25.415Z,17.88
2023-01-09T04:29:27.199Z,17.88
2023-01-09T04:30:28.967Z,17.88
2023-01-09T04:31:30.906Z,17.87
2023-01-09T04:32:32.793Z,17.83
2023-01-09T04:33:34.875Z,17.83
2023-01-09T04:34:36.652Z,17.87
2023-01-09T04:35:38.525Z,17.87
2023-01-09T04:36:40.301Z,17.88
2023-01-09T04:37:42.184Z,17.82
2023-01-09T04:38:43.984Z,17.88
2023-01-09T04:39:46.086Z,17.88
2023-01-09T04:40:48.696Z,17.88
2023-01-09T04:41:50.566Z,17.88
2023-01-09T04:42:52.349Z,17.88
2023-01-09T04:43:54.138Z,17.88
2023-01-09T04:44:55.931Z,17.87
2023-01-09T04:45:57.740Z,17.87
2023-01-09T04:46:59.629Z,17.87
2023-01-09T04:48:01.419Z,17.88
2023-01-09T04:49:03.321Z,17.87
2023-01-09T04:50:05.591Z,17.87
2023-01-09T04:51:07.452Z,17.82
2023-01-09T04:52:09.221Z,17.81
2023-01-09T04:53:11.007Z,17.87
2023-01-09T04:54:13.098Z,17.86
2023-01-09T04:55:14.922Z,17.86
2023-01-09T04:56:16.705Z,17.85
2023-01-09T04:57:18.657Z,17.84
2023-01-09T04:58:20.456Z,17.85
2023-01-09T04:59:22.257Z,17.83
2023-01-09T05:00:24.093Z,17.83
2023-01-09T05:01:25.972Z,17.87
2023-01-09T05:02:27.806Z,17.87
2023-01-09T05:03:29.645Z,17.86
2023-01-09T05:04:31.625Z,17.82
2023-01-09T05:05:33.539Z,17.82
2023-01-09T05:06:35.377Z,17.76
2023-01-09T05:07:37.519Z,17.87
2023-01-09T05:08:39.298Z,17.84
2023-01-09T05:09:41.201Z,17.85
2023-01-09T05:10:42.995Z,17.81
2023-01-09T05:11:44.931Z,17.82
2023-01-09T05:12:46.783Z,17.79
2023-01-09T05:13:48.574Z,17.85
2023-01-09T05:14:50.323Z,17.86
2023-01-09T05:15:52.111Z,17.66
2023-01-09T05:16:53.960Z,17.85
2023-01-09T05:17:55.829Z,17.86
2023-01-09T05:18:57.972Z,17.86
2023-01-09T05:20:01.115Z,17.86
2023-01-09T05:21:03.294Z,17.85
2023-01-09T05:22:05.434Z,17.78
2023-01-09T05:23:07.498Z,17.86
2023-01-09T05:24:09.271Z,17.83
2023-01-09T05:25:11.050Z,17.86
2023-01-09T05:26:12.792Z,17.86
2023-01-09T05:27:14.768Z,17.86
2023-01-09T05:28:16.679Z,17.87
2023-01-09T05:29:18.516Z,17.84
2023-01-09T05:30:20.492Z,17.82
2023-01-09T05:31:23.501Z,17.80
2023-01-09T05:32:25.385Z,17.87
2023-01-09T05:33:27.372Z,17.70
2023-01-09T05:34:29.317Z,17.80
2023-01-09T05:35:31.130Z,17.81
2023-01-09T05:36:32.963Z,17.82
2023-01-09T05:37:34.728Z,17.85
2023-01-09T05:38:36.491Z,17.84
2023-01-09T05:39:38.255Z,17.75
2023-01-09T05:40:40.761Z,17.80
2023-01-09T05:41:42.647Z,17.85
2023-01-09T05:42:46.101Z,17.85
2023-01-09T05:43:47.862Z,17.84
2023-01-09T05:44:49.647Z,17.85
2023-01-09T05:45:51.521Z,17.86
2023-01-09T05:46:53.431Z,17.84
2023-01-09T05:47:55.254Z,17.85
2023-01-09T05:48:57.261Z,17.78
2023-01-09T05:49:59.069Z,17.84
2023-01-09T05:51:00.856Z,17.83
2023-01-09T05:52:02.726Z,17.85
2023-01-09T05:53:04.506Z,17.84
2023-01-09T05:54:07.564Z,17.79
2023-01-09T05:55:09.579Z,17.80
2023-01-09T05:56:11.880Z,17.85
2023-01-09T05:57:13.941Z,17.79
2023-01-09T05:58:15.739Z,17.85
2023-01-09T05:59:17.551Z,17.85
2023-01-09T06:00:19.832Z,17.85
2023-01-09T06:01:23.638Z,17.82
2023-01-09T06:02:25.824Z,17.85
2023-01-09T06:03:27.783Z,17.85
2023-01-09T06:04:30.080Z,17.79
2023-01-09T06:05:31.975Z,17.86
2023-01-09T06:06:33.810Z,17.86
2023-01-09T06:07:39.348Z,17.82
2023-01-09T06:08:41.160Z,17.83
2023-01-09T06:09:42.969Z,17.82
2023-01-09T06:10:46.214Z,17.87
2023-01-09T06:11:48.199Z,17.85
2023-01-09T06:12:51.542Z,17.85
2023-01-09T06:13:53.297Z,17.94
2023-01-09T06:14:55.173Z,17.96
2023-01-09T06:15:56.946Z,17.95
2023-01-09T06:16:59.117Z,18.01
2023-01-09T06:18:00.936Z,18.03
2023-01-09T06:19:02.886Z,17.84
2023-01-09T06:20:05.146Z,18.09
2023-01-09T06:21:06.907Z,18.10
2023-01-09T06:22:08.674Z,18.17
2023-01-09T06:23:12.746Z,18.20
2023-01-09T06:24:15.231Z,18.22
2023-01-09T06:25:17.081Z,18.22
2023-01-09T06:26:18.857Z,18.29
2023-01-09T06:27:20.744Z,18.32
2023-01-09T06:28:22.502Z,18.31
2023-01-09T06:29:24.357Z,18.38
2023-01-09T06:30:26.169Z,18.35
2023-01-09T06:31:28.372Z,18.43
2023-01-09T06:32:30.245Z,18.50
2023-01-09T06:33:32.339Z,18.47
2023-01-09T06:34:34.188Z,18.55
2023-01-09T06:35:36.079Z,18.55
2023-01-09T06:36:37.835Z,18.63
2023-01-09T06:37:39.722Z,18.66
2023-01-09T06:38:41.630Z,18.65
2023-01-09T06:39:43.431Z,18.71
2023-01-09T06:40:45.293Z,18.70
2023-01-09T06:41:48.490Z,18.75
2023-01-09T06:42:50.562Z,18.75
2023-01-09T06:43:52.589Z,18.82
2023-01-09T06:44:54.348Z,18.85
2023-01-09T06:45:56.254Z,18.88
2023-01-09T06:46:58.077Z,18.85
2023-01-09T06:47:59.928Z,18.86
2023-01-09T06:49:01.712Z,18.96
2023-01-09T06:50:03.848Z,18.97
2023-01-09T06:51:05.931Z,18.93
2023-01-09T06:52:08.069Z,19.01
2023-01-09T06:53:10.826Z,19.04
2023-01-09T06:54:12.589Z,19.06
2023-01-09T06:55:14.411Z,19.07
2023-01-09T06:56:16.310Z,19.07
2023-01-09T06:57:18.169Z,19.11
2023-01-09T06:58:20.678Z,19.11
2023-01-09T06:59:22.665Z,19.13
2023-01-09T07:00:24.547Z,19.14
2023-01-09T07:01:26.357Z,19.14
2023-01-09T07:02:28.525Z,19.17
2023-01-09T07:03:31.947Z,19.11
2023-01-09T07:04:34.935Z,19.19
2023-01-09T07:05:42.611Z,19.20
2023-01-09T07:06:48.212Z,19.22
2023-01-09T07:07:50.026Z,19.24
2023-01-09T07:08:51.944Z,19.24
2023-01-09T07:09:53.800Z,19.19
2023-01-09T07:10:55.568Z,19.20
2023-01-09T07:11:57.376Z,19.24
2023-01-09T07:12:59.145Z,19.18
2023-01-09T07:14:00.921Z,19.22
2023-01-09T07:15:02.754Z,19.17
2023-01-09T07:16:05.596Z,19.24
2023-01-09T07:17:07.609Z,19.25
2023-01-09T07:18:09.606Z,19.24
2023-01-09T07:19:11.392Z,19.23
2023-01-09T07:20:13.179Z,19.21
2023-01-09T07:21:14.939Z,19.27
2023-01-09T07:22:17.387Z,19.26
2023-01-09T07:23:19.198Z,19.28
2023-01-09T07:24:21.032Z,19.24
2023-01-09T07:25:22.815Z,19.22
2023-01-09T07:26:24.644Z,19.27
2023-01-09T07:27:26.441Z,19.26
2023-01-09T07:28:28.317Z,19.29
2023-01-09T07:29:30.550Z,19.28
2023-01-09T07:30:33.474Z,19.30
2023-01-09T07:31:35.389Z,19.31
2023-01-09T07:32:38.578Z,19.30
2023-01-09T07:33:40.453Z,19.32
2023-01-09T07:34:42.317Z,19.30
2023-01-09T07:35:44.057Z,19.28
2023-01-09T07:36:46.735Z,19.27
2023-01-09T07:37:48.558Z,19.29
2023-01-09T07:38:50.423Z,19.25
2023-01-09T07:39:52.566Z,19.29
2023-01-09T07:40:54.839Z,19.24
2023-01-09T07:41:56.651Z,19.28
2023-01-09T07:42:58.458Z,19.30
2023-01-09T07:44:00.319Z,19.32
2023-01-09T07:45:02.195Z,19.31
2023-01-09T07:46:04.321Z,19.30
2023-01-09T07:47:06.254Z,19.26
2023-01-09T07:48:08.049Z,19.32
2023-01-09T07:49:09.825Z,19.31
2023-01-09T07:50:11.803Z,19.31
2023-01-09T07:51:13.736Z,19.28
2023-01-09T07:52:15.628Z,19.32
2023-01-09T07:53:17.385Z,19.29
2023-01-09T07:54:19.277Z,19.23
2023-01-09T07:55:21.131Z,19.27
2023-01-09T07:56:23.088Z,19.32
2023-01-09T07:57:24.913Z,19.31
2023-01-09T07:58:26.807Z,19.28
2023-01-09T07:59:29.757Z,19.32
2023-01-09T08:00:33.126Z,19.32
2023-01-09T08:01:35.528Z,19.33
2023-01-09T08:02:37.383Z,19.32
2023-01-09T08:03:39.198Z,19.33
2023-01-09T08:04:40.999Z,19.33
2023-01-09T08:05:42.831Z,19.24
2023-01-09T08:06:44.650Z,19.27
2023-01-09T08:07:46.683Z,19.32
2023-01-09T08:08:48.585Z,19.32
2023-01-09T08:09:50.360Z,19.29
2023-01-09T08:10:52.169Z,19.34
2023-01-09T08:11:54.585Z,19.36
2023-01-09T08:12:57.482Z,19.33
2023-01-09T08:13:59.263Z,19.35
2023-01-09T08:15:01.248Z,19.35
2023-01-09T08:16:03.375Z,19.16
2023-01-09T08:17:05.184Z,19.19
2023-01-09T08:18:06.950Z,19.34
2023-01-09T08:19:08.851Z,19.38
2023-01-09T08:20:12.724Z,19.38
2023-01-09T08:21:14.490Z,19.40
2023-01-09T08:22:16.296Z,19.35
2023-01-09T08:23:18.144Z,19.39
2023-01-09T08:24:19.905Z,19.36
2023-01-09T08:25:21.876Z,19.33
2023-01-09T08:26:23.731Z,19.33
2023-01-09T08:27:25.588Z,19.38
2023-01-09T08:28:27.401Z,19.33
2023-01-09T08:29:30.499Z,19.36
2023-01-09T08:30:32.439Z,19.41
2023-01-09T08:31:34.266Z,19.42
2023-01-09T08:32:37.510Z,19.37
2023-01-09T08:33:40.507Z,19.42
2023-01-09T08:34:42.517Z,19.42
2023-01-09T08:35:44.941Z,19.40
2023-01-09T08:36:46.770Z,19.21
2023-01-09T08:37:49.249Z,19.42
2023-01-09T08:38:51.024Z,19.42
2023-01-09T08:39:53.456Z,19.42
2023-01-09T08:40:55.259Z,19.43
2023-01-09T08:42:15.561Z,19.41
2023-01-09T08:43:36.051Z,19.46
2023-01-09T08:44:56.296Z,19.51
2023-01-09T08:46:17.297Z,19.49
2023-01-09T08:47:23.423Z,19.53
2023-01-09T08:48:25.311Z,19.47
2023-01-09T08:49:27.092Z,19.43
2023-01-09T08:50:28.921Z,19.49
2023-01-09T08:51:30.842Z,19.42
2023-01-09T08:52:32.929Z,19.44
2023-01-09T08:53:34.701Z,19.50
2023-01-09T08:54:39.041Z,19.43
2023-01-09T08:55:41.169Z,19.45
2023-01-09T08:56:42.959Z,19.47
2023-01-09T08:57:52.444Z,19.50
2023-01-09T08:58:54.248Z,19.53
2023-01-09T08:59:56.107Z,19.52
2023-01-09T09:00:59.026Z,19.46
2023-01-09T09:02:01.066Z,19.52
2023-01-09T09:03:03.040Z,19.52
2023-01-09T09:04:05.934Z,19.51
2023-01-09T09:05:08.184Z,19.50
2023-01-09T09:06:10.216Z,19.45
2023-01-09T09:07:11.983Z,19.53
2023-01-09T09:08:13.970Z,19.52
2023-01-09T09:09:15.983Z,19.52
2023-01-09T09:10:18.346Z,19.48
2023-01-09T09:11:20.152Z,19.53
2023-01-09T09:12:22.553Z,19.53
2023-01-09T09:13:24.343Z,19.47
2023-01-09T09:14:44.460Z,19.53
2023-01-09T09:15:46.318Z,19.55
2023-01-09T09:16:49.367Z,19.55
2023-01-09T09:18:02.328Z,19.49
2023-01-09T09:19:04.111Z,19.51
2023-01-09T09:20:09.933Z,19.56
2023-01-09T09:21:11.739Z,19.50
2023-01-09T09:22:13.488Z,19.54
2023-01-09T09:23:15.410Z,19.53
2023-01-09T09:24:17.241Z,19.53
2023-01-09T09:25:20.153Z,19.49
2023-01-09T09:26:21.969Z,19.53
2023-01-09T09:27:23.807Z,19.46
2023-01-09T09:28:25.568Z,19.45
2023-01-09T09:29:27.335Z,19.52
2023-01-09T09:30:29.152Z,19.50
2023-01-09T09:31:31.254Z,19.53
2023-01-09T09:32:33.212Z,19.30
2023-01-09T09:33:34.973Z,19.53
2023-01-09T09:34:36.763Z,19.54
2023-01-09T09:35:38.553Z,19.53
2023-01-09T09:36:40.392Z,19.53
2023-01-09T09:37:42.270Z,19.52
2023-01-09T09:38:44.055Z,19.51
2023-01-09T09:39:45.856Z,19.50
2023-01-09T09:41:32.447Z,19.52
2023-01-09T09:42:58.645Z,19.64
2023-01-09T09:44:48.332Z,19.64
2023-01-09T09:46:20.321Z,19.71
2023-01-09T09:47:47.095Z,19.67
2023-01-09T09:48:56.086Z,19.61
2023-01-09T09:50:14.116Z,19.63
2023-01-09T09:51:40.097Z,19.63
2023-01-09T09:52:53.606Z,19.62
2023-01-09T09:54:01.804Z,19.60
2023-01-09T09:55:14.246Z,19.58
2023-01-09T09:56:19.131Z,19.56
2023-01-09T09:57:25.932Z,19.50
2023-01-09T09:58:39.872Z,19.57
2023-01-09T09:59:43.117Z,19.57
2023-01-09T10:00:44.955Z,19.56
2023-01-09T10:02:27.738Z,19.60
2023-01-09T10:03:58.603Z,19.61
2023-01-09T10:05:18.996Z,19.66
2023-01-09T10:06:29.187Z,19.63
2023-01-09T10:07:42.259Z,19.61
2023-01-09T10:09:05.484Z,19.59
2023-01-09T10:10:16.020Z,19.59
2023-01-09T10:11:26.796Z,19.59
2023-01-09T10:12:33.162Z,19.58
2023-01-09T10:13:53.385Z,19.57
2023-01-09T10:14:58.128Z,19.59
2023-01-09T10:16:14.997Z,19.57
2023-01-09T10:17:38.000Z,19.61
2023-01-09T10:19:16.328Z,19.64
2023-01-09T10:20:27.365Z,19.64
2023-01-09T10:22:07.629Z,19.66
2023-01-09T10:23:24.567Z,19.65
2023-01-09T10:24:34.967Z,19.62
2023-01-09T10:25:55.449Z,19.60
2023-01-09T10:27:01.795Z,19.50
2023-01-09T10:28:27.664Z,19.58
2023-01-09T10:30:01.592Z,19.64
2023-01-09T10:31:16.011Z,19.63
2023-01-09T10:32:37.571Z,19.62
2023-01-09T10:34:02.642Z,19.60
2023-01-09T10:35:23.210Z,19.65
2023-01-09T10:36:43.180Z,19.61
2023-01-09T10:37:47.405Z,19.61
2023-01-09T10:38:53.132Z,19.57
2023-01-09T10:40:00.275Z,19.55
2023-01-09T10:41:07.645Z,19.56
2023-01-09T10:42:26.620Z,19.55
2023-01-09T10:43:38.016Z,19.57
2023-01-09T10:44:48.113Z,19.43
2023-01-09T10:45:57.768Z,19.53
2023-01-09T10:47:02.587Z,19.55
2023-01-09T10:48:36.910Z,19.57
2023-01-09T10:49:38.813Z,19.61
2023-01-09T10:50:45.963Z,19.49
2023-01-09T10:51:49.159Z,19.55
2023-01-09T10:52:53.470Z,19.53
2023-01-09T10:53:56.603Z,19.53
2023-01-09T10:55:21.948Z,19.53
2023-01-09T10:56:30.955Z,19.56
2023-01-09T10:57:43.050Z,19.56
2023-01-09T10:58:44.923Z,19.58
2023-01-09T10:59:46.920Z,19.55
2023-01-09T11:00:51.046Z,19.50
2023-01-09T11:01:53.983Z,19.51
2023-01-09T11:02:55.956Z,19.52
2023-01-09T11:04:02.352Z,19.53
2023-01-09T11:05:04.371Z,19.54
2023-01-09T11:06:21.264Z,19.54
2023-01-09T11:07:30.664Z,19.56
2023-01-09T11:08:43.046Z,19.57
2023-01-09T11:09:57.016Z,19.59
2023-01-09T11:11:01.471Z,19.57
2023-01-09T11:12:24.320Z,19.60
2023-01-09T11:13:33.600Z,19.58
2023-01-09T11:14:38.050Z,19.58
2023-01-09T11:15:39.900Z,19.57
2023-01-09T11:16:53.178Z,19.53
2023-01-09T11:18:16.198Z,19.55
2023-01-09T11:19:18.539Z,19.57
2023-01-09T11:20:28.570Z,19.56
2023-01-09T11:21:41.645Z,19.58
2023-01-09T11:22:55.376Z,19.46
2023-01-09T11:24:17.015Z,19.57
2023-01-09T11:25:21.757Z,19.59
2023-01-09T11:26:28.661Z,19.57
2023-01-09T11:27:30.612Z,19.57
2023-01-09T11:28:32.442Z,19.55
2023-01-09T11:29:34.246Z,19.53
2023-01-09T11:30:37.839Z,19.52
2023-01-09T11:31:50.596Z,19.51
2023-01-09T11:32:53.222Z,19.54
2023-01-09T11:33:55.524Z,19.54
2023-01-09T11:34:57.628Z,19.37
2023-01-09T11:36:10.990Z,19.52
2023-01-09T11:37:19.109Z,19.53
2023-01-09T11:38:20.992Z,19.54
2023-01-09T11:39:25.719Z,19.45
2023-01-09T11:40:28.527Z,19.52
2023-01-09T11:41:36.551Z,19.51
2023-01-09T11:42:53.649Z,19.53
2023-01-09T11:43:58.437Z,19.48
2023-01-09T11:45:01.653Z,19.53
2023-01-09T11:46:11.572Z,19.50
2023-01-09T11:47:39.117Z,19.53
2023-01-09T11:48:58.364Z,19.53
2023-01-09T11:50:26.487Z,19.62
2023-01-09T11:51:34.069Z,19.61
2023-01-09T11:52:35.973Z,19.57
2023-01-09T11:53:49.189Z,19.54
2023-01-09T11:55:05.676Z,19.57
2023-01-09T11:56:09.837Z,19.55
2023-01-09T11:57:12.614Z,19.54
2023-01-09T11:58:16.877Z,19.42
2023-01-09T11:59:21.737Z,19.51
2023-01-09T12:00:29.585Z,19.51
2023-01-09T12:01:57.914Z,19.51
2023-01-09T12:03:42.697Z,19.61
2023-01-09T12:05:16.903Z,19.66
2023-01-09T12:06:27.797Z,19.63
2023-01-09T12:07:42.091Z,19.60
2023-01-09T12:09:03.102Z,19.60
2023-01-09T12:10:23.810Z,19.61
2023-01-09T12:11:47.480Z,19.60
2023-01-09T12:13:11.974Z,19.57
2023-01-09T12:14:16.313Z,19.56
2023-01-09T12:15:38.728Z,19.57
2023-01-09T12:17:06.938Z,19.59
2023-01-09T12:18:23.824Z,19.58
2023-01-09T12:19:54.003Z,19.59
2023-01-09T12:21:14.013Z,19.57
2023-01-09T12:22:40.238Z,19.59
2023-01-09T12:24:10.106Z,19.60
2023-01-09T12:25:30.969Z,19.59
2023-01-09T12:26:52.473Z,19.56
2023-01-09T12:28:00.326Z,19.56
2023-01-09T12:29:22.489Z,19.55
2023-01-09T12:30:57.326Z,19.59
2023-01-09T12:32:28.136Z,19.61
2023-01-09T12:33:48.884Z,19.61
2023-01-09T12:35:10.635Z,19.56
2023-01-09T12:36:21.169Z,19.57
2023-01-09T12:37:53.891Z,19.56
2023-01-09T12:39:06.745Z,19.53
2023-01-09T12:40:34.572Z,19.58
2023-01-09T12:41:58.976Z,19.57
2023-01-09T12:43:22.071Z,19.57
2023-01-09T12:44:59.644Z,19.59
2023-01-09T12:46:13.469Z,19.60
2023-01-09T12:47:22.653Z,19.58
2023-01-09T12:48:57.423Z,19.59
2023-01-09T12:50:14.591Z,19.61
2023-01-09T12:51:35.309Z,19.59
2023-01-09T12:53:06.203Z,19.61
2023-01-09T12:54:21.210Z,19.54
2023-01-09T12:55:27.664Z,19.57
2023-01-09T12:56:37.551Z,19.54
2023-01-09T12:57:44.661Z,19.52
2023-01-09T12:58:57.525Z,19.47
2023-01-09T13:00:30.611Z,19.57
2023-01-09T13:01:46.784Z,19.46
2023-01-09T13:03:00.597Z,19.54
2023-01-09T13:04:34.858Z,19.60
2023-01-09T13:05:49.240Z,19.56
2023-01-09T13:06:59.880Z,19.56
2023-01-09T13:08:28.861Z,19.57
2023-01-09T13:09:43.717Z,19.58
2023-01-09T13:10:48.752Z,19.55
2023-01-09T13:12:03.118Z,19.53
2023-01-09T13:13:15.519Z,19.53
2023-01-09T13:14:48.045Z,19.53
2023-01-09T13:16:04.667Z,19.57
2023-01-09T13:17:13.011Z,19.52
2023-01-09T13:18:29.561Z,19.54
2023-01-09T13:19:39.501Z,19.49
2023-01-09T13:20:53.842Z,19.55
2023-01-09T13:21:57.644Z,19.52
2023-01-09T13:23:01.911Z,19.50
2023-01-09T13:24:15.838Z,19.50
2023-01-09T13:25:29.801Z,19.51
2023-01-09T13:26:42.088Z,19.51
2023-01-09T13:27:52.510Z,19.51
2023-01-09T13:29:03.277Z,19.50
2023-01-09T13:30:42.880Z,19.56
2023-01-09T13:31:53.966Z,19.55
2023-01-09T13:33:14.731Z,19.60
2023-01-09T13:34:23.860Z,19.56
2023-01-09T13:35:25.854Z,19.53
2023-01-09T13:36:33.042Z,19.50
2023-01-09T13:37:36.959Z,19.50
2023-01-09T13:38:39.164Z,19.49
2023-01-09T13:39:40.949Z,19.49
2023-01-09T13:40:43.149Z,19.47
2023-01-09T13:42:12.747Z,19.46
2023-01-09T13:43:16.716Z,19.52
2023-01-09T13:44:18.469Z,19.51
2023-01-09T13:45:25.737Z,19.44
2023-01-09T13:46:41.339Z,19.49
2023-01-09T13:47:43.936Z,19.44
2023-01-09T13:48:47.036Z,19.52
2023-01-09T13:49:48.855Z,19.50
2023-01-09T13:50:51.154Z,19.49
2023-01-09T13:51:52.989Z,19.48
2023-01-09T13:52:56.117Z,19.48
2023-01-09T13:53:57.911Z,19.48
2023-01-09T13:55:11.787Z,19.50
2023-01-09T13:56:14.550Z,19.52
2023-01-09T13:57:24.987Z,19.35
2023-01-09T13:58:28.377Z,19.53
2023-01-09T13:59:30.257Z,19.52
2023-01-09T14:00:35.105Z,19.50
2023-01-09T14:01:39.937Z,19.52
2023-01-09T14:02:42.547Z,19.51
2023-01-09T14:03:44.430Z,19.51
2023-01-09T14:04:46.334Z,19.42
2023-01-09T14:05:48.062Z,19.51
2023-01-09T14:07:16.736Z,19.55
2023-01-09T14:08:23.994Z,19.53
2023-01-09T14:09:27.191Z,19.56
2023-01-09T14:10:53.739Z,19.59
2023-01-09T14:12:04.726Z,19.59
2023-01-09T14:13:13.063Z,19.58
2023-01-09T14:14:26.064Z,19.58
2023-01-09T14:15:36.478Z,19.58
2023-01-09T14:16:39.661Z,19.50
2023-01-09T14:17:41.597Z,19.54
2023-01-09T14:19:02.157Z,19.57
2023-01-09T14:20:48.011Z,19.59
2023-01-09T14:21:55.325Z,19.68
2023-01-09T14:23:18.042Z,19.65
2023-01-09T14:24:41.101Z,19.68
2023-01-09T14:25:44.913Z,19.67